Deer Park, Louisiana
Current Conditions -  °F | °C
As of 6:15 AM on Sunday 23 Nov 2014 (Local Time) from KHEZ Reporting Station
Overcast Overcast  
Wind Chill: 63°   Ceiling: 800
Heat Index: 63°   Visibility: 10mi
Dew Point: 59°   Wind: 12mph
Humidity: 88%   Direction: 120°ESE
Pressure: 29.7"   Gusts: NA
Location:  31.5712°N, 91.5148°W
Report Text: KHEZ 231215Z AUTO 12010KT 10SM BKN008 OVC013 17/15 A2970 RMK AO1 P0002
Loading
Personal Weather Stations






























Interactive Weather Map New forecast layout! Learn more

10-Day Weather Forecast

Advertisements
Track Severe Weather on mobile